Airfield :
LOGIN :

Register | Disclaimer

   EN    FR    IT 

 










Legend :    VFR   Marginal VFR   IFR   Intensive IFR   Very Intensive IFR
Visi :
Ceiling :
>= 8 km
>= 3000ft
5 to 8 km
1000 to 3000 ft
1500m to 5 km
500 to 1000 ft
800 to 1500m
200 to 500 ft
< 800m
< 200 ft
Symbols :   Thunderstorms  Fog  Heavy snow  Heavy precipitations  Wind > 20 kt
SIGMETs :     Misc.  Thunderstorms  Icing  Turbulence  Mountain Waves  Volcanic Ashes







- Airport Elevation : 37 ft


EHVL - Vlieland Heliport

CURRENT METAR :
  • 262155Z AUTO 26016KT 9999 SCT043 SCT067 OVC160 13/12 Q1007 BLU

EXPIRED METARs :
  • 262125Z AUTO 26016KT 9999 FEW040 BKN065 OVC071 13/12 Q1007 BLU
  • 262055Z AUTO 25016KT 9000 BR FEW046 SCT054 OVC062 13/13 Q1007 BLU
  • 262025Z AUTO 25017KT 8000 BR FEW037 BKN054 OVC062 13/13 Q1007 BLU
  • 262014Z AUTO 26017KT 8000 BR FEW025 BKN051 OVC056 13/13 Q1007 BLU
  • 262002Z AUTO 25018KT 8000 BR FEW004 SCT007 BKN027 13/13 Q1007 GRN
  • 261955Z AUTO 25017KT 9999 FEW015CB OVC026 13/13 Q1007 REDZ BLU
  • 261947Z AUTO 25017KT 9999 FEW001 FEW015CB BKN025 OVC045 13/13 Q1007 BLU
  • 261927Z AUTO 25020KT 7000 BR FEW002 FEW015CB BKN045 BKN049 13/13 Q1007 WHT
  • 261925Z AUTO 25021KT 6000 BR FEW002 SCT006 FEW015CB BKN044 13/13 Q1007 REDZ YLO
  • 261912Z AUTO 25023KT 5000 -DZ FEW003 FEW015CB SCT016 BKN025 13/13 Q1007 WHT
  • 261859Z AUTO 25025KT 3400 +DZRA SCT003 BKN004 BKN006 SCT015CB 13/13 Q1007 YLO
  • 261855Z AUTO 24024KT 3100 -RA BKN003 BKN004 BKN005 FEW015CB 13/13 Q1007 RERA REDZ YLO

Expired Forecast.
No reported NOTAMs for that airfield.



MET'MAP, your aeronautical weather chart ! - Copyright ORBIFLY December 2007 - Disclaimer

ORBIFLY MET'MAP TEAM :

Programming & Development : Alexandra Zaïnal
Concept & Development : Baudouin d'Aumeries
Co-Development & Prog : Marc-Olivier Méhu
Technical & hardware support : Manuel Goepfert

Contact : metmap@orbifly.com




SOURCES & CREDITS :

   NOAA